Huvudsida
METAR-TAF:

METAR-TAF

Flygplatser :

Prince Said Ibrahim International Airport

Moroni, Komorerna

latitud: 11-32S, longitud: 043-16E, höjd: 29 m

Aktuellt väderrapport

Denna rapport gjordes för 36 minuter sedan, klockan 13:00 UTC
Vind 7 kt från väst/sydväst, varierande mellan sydväst och väst
Temperatur 29°C
Fuktighet 66%
Tryck 1014 hPa
Sikt 10 km eller mer
Spridda moln på en höjd av 2400 ft

METAR: FMCH 151300Z 25007KT 220V280 9999 SCT024 29/22 Q1014 NOSIG

Tid: 16:36 (13:36 UTC)

Väderprognos

Denna rapport gjordes för 2 timmar och 36 minuter sedan, klockan 11:00 UTC
Prognos gäller från 15 kl. 12 UTC till 16 kl. 18 UTC
Vind 12 kt från väst/sydväst
Sikt 10 km eller mer
Få moln på en höjd av 2300 ft
Spridda moln på en höjd av 2800 ft
Blir
från 15 kl. 16 UTC till 15 kl. 18 UTC
Vind 5 kt från ost
Blir
från 16 kl. 06 UTC till 16 kl. 08 UTC
Vind 10 kt från sydväst

TAF: FMCH 151100Z 1512/1618 24012KT 9999 FEW023 SCT028 BECMG 1516/1518 10005KT BECMG 1606/1608 22010KT

Aktuella väderrapporter och prognoser från 4000 flygplatser (METAR- och TAF-rapporter).

De tillgängliga stationerna syns som gula och röda prickar på kartan.

För musen över prickarna för att se namnen på stationerna.

Klicka sedan för att få väderrapporter och prognoser.

För att ändra kartan: Klicka på de gröna knapparna med ett svart kors på för att zooma in; den gröna knappen med ett streck på för att zooma ut; eller på de gröna pilarna för angränsande kartor.


METAR-TAF: